Terminal Aerodrome Forecast
Issued by NWS

Home | Current Version | Previous Version | Text Only | Print | Product List | Glossary On
Versions: 1 2 3 4 5 6 7 8 9 10 11 12 13 14 15 16 17 18 19 20 21 22 23 24 25 26 27 28 29 30
382
FTUS41 KBUF 181731
TAFJHW
TAF
KJHW 181731Z 1818/1918 19007KT 6SM -RA BR OVC007
     FM182100 22011KT 2SM -RA BR OVC003
     FM190300 23010KT 6SM -DZ BR OVC007
     FM190700 23011G17KT P6SM -DZ OVC007
     FM191100 23014G25KT P6SM -DZ OVC012
      AMD LTD TO CLD VIS AND WIND=

USA.gov is the U.S. government's official web portal to all federal, state and local government web resources and services.